Time;durP1;ratioP1;P1;durP2;ratioP2;P2;SDS_P1;SDS_P2;PMS_P1;PMS_P2;Temp;Humidity;BMP_temperature;BMP_pressure;BME280_temperature;BME280_humidity;BME280_pressure;Samples;Min_cycle;Max_cycle;Signal;HPM_P1;HPM_P2
2023/09/04 00:00:57;;;;;;;15.23;11.35;;;14.40;99.90;;;;;;5095578;28;20023;-62
2023/09/04 00:03:25;;;;;;;15.15;11.70;;;14.40;99.90;;;;;;5095979;28;20020;-62
2023/09/04 00:05:50;;;;;;;13.35;11.30;;;14.40;99.90;;;;;;5095946;28;20023;-62
2023/09/04 00:08:16;;;;;;;13.15;11.77;;;14.40;99.90;;;;;;5117479;28;20016;-62
2023/09/04 00:10:42;;;;;;;12.23;10.80;;;14.40;99.90;;;;;;5118152;28;20055;-62
2023/09/04 00:13:08;;;;;;;16.67;12.45;;;14.30;99.90;;;;;;5117644;28;20031;-62
2023/09/04 00:15:34;;;;;;;12.48;10.75;;;14.30;99.90;;;;;;5117528;28;20057;-63
2023/09/04 00:17:59;;;;;;;11.18;9.85;;;14.30;99.90;;;;;;5117440;28;20027;-62
2023/09/04 00:20:25;;;;;;;13.30;11.35;;;14.30;99.90;;;;;;5099141;28;20019;-62
2023/09/04 00:22:51;;;;;;;15.75;11.13;;;14.30;99.90;;;;;;5117659;28;20054;-62
2023/09/04 00:25:16;;;;;;;14.23;11.65;;;14.30;99.90;;;;;;5117377;28;20024;-62
2023/09/04 00:27:42;;;;;;;11.63;10.43;;;14.30;99.90;;;;;;5099180;28;20130;-62
2023/09/04 00:30:08;;;;;;;13.50;11.20;;;14.30;99.90;;;;;;5117373;28;20023;-62
2023/09/04 00:32:34;;;;;;;13.57;11.07;;;14.20;99.90;;;;;;5117085;28;20028;-62
2023/09/04 00:34:59;;;;;;;12.95;11.18;;;14.20;99.90;;;;;;5099076;28;20024;-62
2023/09/04 00:37:25;;;;;;;16.52;12.45;;;14.20;99.90;;;;;;5117635;28;20024;-62
2023/09/04 00:39:50;;;;;;;15.68;11.60;;;14.20;99.90;;;;;;5118315;28;20027;-62
2023/09/04 00:42:16;;;;;;;15.60;11.70;;;14.10;99.90;;;;;;5118086;28;20030;-62
2023/09/04 00:44:47;;;;;;;11.82;10.60;;;14.10;99.90;;;;;;5099377;28;20023;-62
2023/09/04 00:47:17;;;;;;;14.38;11.05;;;14.10;99.90;;;;;;5117143;28;20035;-62
2023/09/04 00:49:44;;;;;;;12.38;11.07;;;14.10;99.90;;;;;;5117251;28;20359;-62
2023/09/04 00:52:10;;;;;;;14.65;11.13;;;14.10;99.90;;;;;;5116940;28;20084;-62
2023/09/04 00:54:37;;;;;;;12.85;10.13;;;14.00;99.90;;;;;;5098477;28;20031;-62
2023/09/04 00:57:04;;;;;;;12.82;11.10;;;14.00;99.90;;;;;;5116699;28;20023;-62
2023/09/04 00:59:31;;;;;;;11.93;10.73;;;14.10;99.90;;;;;;5098900;28;20023;-62
2023/09/04 01:01:59;;;;;;;14.02;10.98;;;14.10;99.90;;;;;;5098641;28;20020;-62
2023/09/04 01:04:24;;;;;;;12.10;10.77;;;14.00;99.90;;;;;;5116714;28;20037;-62
2023/09/04 01:06:50;;;;;;;15.48;10.98;;;14.00;99.90;;;;;;5116501;28;20023;-62
2023/09/04 01:09:17;;;;;;;11.00;9.35;;;14.00;99.90;;;;;;5116198;28;20098;-62
2023/09/04 01:12:14;;;;;;;13.43;10.27;;;14.00;99.90;;;;;;5116199;28;20035;-62
2023/09/04 01:14:44;;;;;;;11.82;10.63;;;14.00;99.90;;;;;;5115796;28;20565;-62
2023/09/04 01:17:11;;;;;;;12.48;10.25;;;14.00;99.90;;;;;;5098179;28;20081;-62
2023/09/04 01:19:39;;;;;;;13.30;10.00;;;14.00;99.90;;;;;;5116389;28;20024;-62
2023/09/04 01:22:08;;;;;;;11.30;10.10;;;13.90;99.90;;;;;;5116228;28;20370;-62
2023/09/04 01:24:34;;;;;;;11.18;10.07;;;13.90;99.90;;;;;;5116193;28;20031;-62
2023/09/04 01:27:16;;;;;;;12.20;10.05;;;13.90;99.90;;;;;;5116126;28;20063;-62
2023/09/04 01:30:01;;;;;;;13.57;10.45;;;13.90;99.90;;;;;;5116139;28;20023;-62
2023/09/04 01:32:48;;;;;;;10.95;9.65;;;13.80;99.90;;;;;;5116556;28;20099;-62
2023/09/04 01:35:16;;;;;;;11.00;9.82;;;13.80;99.90;;;;;;5116042;28;20012;-62
2023/09/04 01:37:42;;;;;;;10.32;9.25;;;13.80;99.90;;;;;;5115886;28;20034;-62
2023/09/04 01:40:08;;;;;;;11.50;10.30;;;13.80;99.90;;;;;;5115840;28;20019;-62
2023/09/04 01:42:36;;;;;;;11.70;9.38;;;13.80;99.90;;;;;;5115767;28;20095;-62
2023/09/04 01:45:02;;;;;;;13.68;9.75;;;13.80;99.90;;;;;;5097542;28;20034;-62
2023/09/04 01:47:30;;;;;;;11.15;9.93;;;13.80;99.90;;;;;;5115838;28;20031;-62
2023/09/04 01:49:56;;;;;;;12.67;10.53;;;13.80;99.90;;;;;;5115797;28;20115;-62
2023/09/04 01:52:22;;;;;;;11.55;9.98;;;13.80;99.90;;;;;;5116257;28;20096;-62
2023/09/04 01:54:48;;;;;;;11.63;9.80;;;13.80;99.90;;;;;;5097420;28;20020;-62
2023/09/04 01:57:14;;;;;;;13.05;9.48;;;13.80;99.90;;;;;;5115853;28;20114;-62
2023/09/04 01:59:39;;;;;;;12.52;9.88;;;13.80;99.90;;;;;;5115867;28;20015;-62
2023/09/04 02:02:05;;;;;;;10.85;9.75;;;13.90;99.90;;;;;;5097103;28;20110;-62
2023/09/04 02:04:31;;;;;;;10.55;9.52;;;13.90;99.90;;;;;;5115787;28;20024;-62
2023/09/04 02:07:01;;;;;;;12.85;10.07;;;13.90;99.90;;;;;;5097226;28;20065;-62
2023/09/04 02:09:26;;;;;;;10.65;9.55;;;13.90;99.90;;;;;;5115724;28;20031;-62
2023/09/04 02:11:52;;;;;;;11.98;9.57;;;13.90;99.90;;;;;;5115928;28;20023;-62
2023/09/04 02:14:18;;;;;;;11.02;9.82;;;13.90;99.90;;;;;;5115520;28;20072;-62
2023/09/04 02:16:43;;;;;;;11.25;9.00;;;13.90;99.90;;;;;;5115050;28;20033;-62
2023/09/04 02:19:09;;;;;;;13.85;9.38;;;13.90;99.90;;;;;;5114922;28;20022;-62
2023/09/04 02:21:35;;;;;;;11.82;9.60;;;13.90;99.90;;;;;;5097137;28;20023;-62
2023/09/04 02:24:01;;;;;;;13.80;9.50;;;13.90;99.90;;;;;;5115441;28;20012;-62
2023/09/04 02:26:27;;;;;;;14.75;9.02;;;13.80;99.90;;;;;;5096965;28;20030;-62
2023/09/04 02:28:53;;;;;;;9.70;8.73;;;13.80;99.90;;;;;;5114641;28;20029;-62
2023/09/04 02:31:18;;;;;;;11.27;9.20;;;13.80;99.90;;;;;;5114825;28;20030;-62
2023/09/04 02:33:44;;;;;;;10.38;9.20;;;13.80;99.90;;;;;;5115189;28;20026;-62
2023/09/04 02:36:10;;;;;;;10.45;9.35;;;13.70;99.90;;;;;;5114834;28;20020;-62
2023/09/04 02:38:35;;;;;;;11.20;10.20;;;13.70;99.90;;;;;;5114975;28;20098;-62
2023/09/04 02:41:01;;;;;;;12.45;9.43;;;13.70;99.90;;;;;;5115124;28;20456;-62
2023/09/04 02:43:27;;;;;;;12.25;9.77;;;13.70;99.90;;;;;;5096536;28;20444;-62
2023/09/04 02:45:52;;;;;;;12.30;9.32;;;13.60;99.90;;;;;;5096509;28;20023;-62
2023/09/04 02:48:18;;;;;;;17.10;9.90;;;13.60;99.90;;;;;;5114770;28;20087;-62
2023/09/04 02:50:44;;;;;;;10.15;9.00;;;13.60;99.90;;;;;;5114463;28;20054;-62
2023/09/04 02:53:09;;;;;;;10.60;9.50;;;13.60;99.90;;;;;;5114704;28;20024;-62
2023/09/04 02:55:35;;;;;;;13.05;9.70;;;13.60;99.90;;;;;;5096702;28;20064;-62
2023/09/04 02:58:01;;;;;;;11.48;9.60;;;13.60;99.90;;;;;;5096414;28;20035;-62
2023/09/04 03:00:26;;;;;;;10.82;8.95;;;13.60;99.90;;;;;;5114695;28;20016;-62
2023/09/04 03:02:52;;;;;;;11.85;10.50;;;13.50;99.90;;;;;;5114784;28;20047;-62
2023/09/04 03:05:18;;;;;;;10.73;9.63;;;13.50;99.90;;;;;;5118046;28;20027;-62
2023/09/04 03:07:44;;;;;;;12.90;9.52;;;13.50;99.90;;;;;;5123635;28;20034;-62
2023/09/04 03:10:10;;;;;;;11.05;9.90;;;13.50;99.90;;;;;;5105650;28;20023;-62
2023/09/04 03:12:35;;;;;;;12.82;9.70;;;13.50;99.90;;;;;;5118035;28;20016;-62
2023/09/04 03:15:04;;;;;;;13.15;9.63;;;13.50;99.90;;;;;;5115110;28;20019;-62
2023/09/04 03:17:32;;;;;;;14.70;10.15;;;13.50;99.90;;;;;;5114273;28;20489;-62
2023/09/04 03:19:58;;;;;;;12.07;9.50;;;13.50;99.90;;;;;;5096521;28;20410;-62
2023/09/04 03:22:24;;;;;;;13.55;9.15;;;13.50;99.90;;;;;;5114293;28;20045;-62
2023/09/04 03:24:50;;;;;;;12.00;9.95;;;13.50;99.90;;;;;;5114171;28;20461;-62
2023/09/04 03:27:16;;;;;;;10.00;9.00;;;13.50;99.90;;;;;;5096028;28;20027;-62
2023/09/04 03:29:43;;;;;;;13.70;9.15;;;13.40;99.90;;;;;;5114297;28;20031;-63
2023/09/04 03:32:08;;;;;;;11.35;9.25;;;13.40;99.90;;;;;;5114209;28;20024;-62
2023/09/04 03:34:34;;;;;;;13.02;11.13;;;13.40;99.90;;;;;;5114024;28;20047;-62
2023/09/04 03:37:00;;;;;;;13.45;9.10;;;13.40;99.90;;;;;;5095998;28;20035;-62
2023/09/04 03:39:25;;;;;;;10.40;9.30;;;13.40;99.90;;;;;;5095884;28;20361;-62
2023/09/04 03:41:51;;;;;;;15.93;9.45;;;13.40;99.90;;;;;;5115805;28;20391;-62
2023/09/04 03:44:18;;;;;;;12.27;9.43;;;13.30;99.90;;;;;;5100080;28;20023;-62
2023/09/04 03:46:43;;;;;;;10.82;9.70;;;13.30;99.90;;;;;;5100023;28;20066;-62
2023/09/04 03:49:09;;;;;;;11.02;8.95;;;13.30;99.90;;;;;;5118677;28;20023;-62
2023/09/04 03:51:35;;;;;;;12.50;9.32;;;13.30;99.90;;;;;;5117954;28;20079;-62
2023/09/04 03:54:03;;;;;;;12.75;10.15;;;13.30;99.90;;;;;;5118434;28;20027;-63
2023/09/04 03:56:30;;;;;;;12.37;9.77;;;13.30;99.90;;;;;;5118355;28;20082;-62
2023/09/04 03:58:57;;;;;;;12.10;9.65;;;13.20;99.90;;;;;;5100096;28;20293;-62
2023/09/04 04:01:22;;;;;;;12.65;9.63;;;13.20;99.90;;;;;;5099923;28;20026;-62
2023/09/04 04:03:49;;;;;;;11.82;9.70;;;13.20;99.90;;;;;;5118218;28;20412;-62
2023/09/04 04:06:15;;;;;;;12.45;10.32;;;13.20;99.90;;;;;;5118201;28;20069;-62
2023/09/04 04:08:41;;;;;;;9.95;8.85;;;13.20;99.90;;;;;;5100750;28;20015;-63
2023/09/04 04:11:07;;;;;;;11.45;9.63;;;13.20;99.90;;;;;;5119283;28;20023;-62
2023/09/04 04:13:32;;;;;;;11.63;9.75;;;13.10;99.90;;;;;;5118723;28;20023;-63
2023/09/04 04:15:59;;;;;;;11.25;9.68;;;13.10;99.90;;;;;;5118193;28;20076;-63
2023/09/04 04:18:27;;;;;;;11.10;9.85;;;13.10;99.90;;;;;;5099976;28;20036;-62
2023/09/04 04:20:53;;;;;;;12.88;9.52;;;13.10;99.90;;;;;;5123574;28;20048;-64
2023/09/04 04:23:19;;;;;;;12.82;9.45;;;13.10;99.90;;;;;;5107833;28;20023;-63
2023/09/04 04:25:44;;;;;;;10.85;9.65;;;13.10;99.90;;;;;;5123963;28;20026;-62
2023/09/04 04:28:10;;;;;;;14.07;9.15;;;13.10;99.90;;;;;;5123388;28;20083;-62
2023/09/04 04:30:36;;;;;;;12.38;9.43;;;13.20;99.90;;;;;;5121542;28;20020;-62
2023/09/04 04:33:02;;;;;;;11.40;9.10;;;13.20;99.90;;;;;;5100429;28;20039;-62
2023/09/04 04:35:28;;;;;;;10.93;9.13;;;13.20;99.90;;;;;;5099458;28;20477;-62
2023/09/04 04:37:53;;;;;;;12.15;8.70;;;13.20;99.90;;;;;;5099335;28;20118;-63
2023/09/04 04:40:23;;;;;;;13.63;8.38;;;13.20;99.90;;;;;;5117242;28;20111;-62
2023/09/04 04:42:49;;;;;;;11.27;9.30;;;13.30;99.90;;;;;;5116907;28;20019;-62
2023/09/04 04:45:15;;;;;;;10.43;8.85;;;13.30;99.90;;;;;;5116858;28;20042;-62
2023/09/04 04:47:40;;;;;;;10.77;8.45;;;13.30;99.90;;;;;;5116549;28;20460;-62
2023/09/04 04:50:08;;;;;;;9.93;7.55;;;13.30;99.90;;;;;;5098445;28;20027;-62
2023/09/04 04:52:34;;;;;;;8.88;7.88;;;13.30;99.90;;;;;;5116624;28;20111;-62
2023/09/04 04:55:00;;;;;;;11.27;7.82;;;13.20;99.90;;;;;;5116766;28;20095;-62
2023/09/04 04:57:26;;;;;;;8.90;8.00;;;13.30;99.90;;;;;;5098405;28;20035;-62
2023/09/04 04:59:51;;;;;;;11.30;8.93;;;13.20;99.90;;;;;;5116695;28;20050;-62
2023/09/04 05:02:17;;;;;;;9.07;8.23;;;13.20;99.90;;;;;;5098503;28;20022;-62
2023/09/04 05:04:47;;;;;;;10.18;7.80;;;13.20;99.90;;;;;;5098389;28;20019;-62
2023/09/04 05:07:13;;;;;;;11.38;8.60;;;13.30;99.90;;;;;;5098290;28;20518;-62
2023/09/04 05:09:39;;;;;;;9.27;7.60;;;13.30;99.90;;;;;;5116664;28;20561;-62
2023/09/04 05:12:05;;;;;;;9.32;8.07;;;13.30;99.90;;;;;;5098406;28;20016;-62
2023/09/04 05:14:31;;;;;;;11.57;7.57;;;13.50;99.90;;;;;;5116346;28;20469;-62
2023/09/04 05:16:57;;;;;;;9.75;7.53;;;13.50;99.90;;;;;;5097761;28;20073;-62
2023/09/04 05:19:22;;;;;;;7.88;7.05;;;13.60;99.90;;;;;;5116344;28;20023;-62
2023/09/04 05:21:48;;;;;;;8.27;6.68;;;13.80;99.90;;;;;;5097895;28;20019;-62
2023/09/04 05:24:14;;;;;;;8.07;5.95;;;13.90;99.90;;;;;;5097687;28;20106;-62
2023/09/04 05:26:39;;;;;;;8.55;5.90;;;14.00;99.90;;;;;;5097698;28;20050;-62
2023/09/04 05:29:05;;;;;;;7.05;5.65;;;14.10;99.90;;;;;;5116089;28;20015;-62
2023/09/04 05:31:31;;;;;;;8.57;6.03;;;14.20;99.90;;;;;;5115936;28;20459;-62
2023/09/04 05:33:57;;;;;;;6.35;5.38;;;14.30;99.90;;;;;;5115976;28;20396;-63
2023/09/04 05:36:23;;;;;;;7.28;5.57;;;14.50;99.90;;;;;;5115513;28;20043;-63
2023/09/04 05:38:48;;;;;;;10.18;6.10;;;14.50;99.90;;;;;;5115728;28;20456;-63
2023/09/04 05:41:14;;;;;;;9.43;6.38;;;14.60;99.90;;;;;;5115697;28;20104;-63
2023/09/04 05:43:40;;;;;;;11.00;6.00;;;14.70;99.90;;;;;;5115626;28;20023;-63
2023/09/04 05:46:06;;;;;;;7.38;5.45;;;14.90;99.90;;;;;;5115428;28;20030;-63
2023/09/04 05:48:34;;;;;;;12.63;5.63;;;14.90;99.90;;;;;;5097681;28;20019;-63
2023/09/04 05:51:01;;;;;;;6.93;4.60;;;15.00;99.90;;;;;;5115038;28;20051;-63
2023/09/04 05:53:26;;;;;;;7.20;4.55;;;15.10;99.90;;;;;;5115739;28;20034;-63
2023/09/04 05:56:09;;;;;;;7.43;4.65;;;15.10;99.90;;;;;;5115552;28;20024;-63
2023/09/04 05:58:41;;;;;;;4.85;3.83;;;15.10;99.90;;;;;;5115446;28;20023;-63
2023/09/04 06:01:07;;;;;;;5.18;3.80;;;15.10;99.90;;;;;;5115060;28;20099;-63
2023/09/04 06:03:33;;;;;;;4.53;3.45;;;15.20;99.90;;;;;;5114890;28;20097;-63
2023/09/04 06:05:58;;;;;;;6.32;3.65;;;15.20;99.90;;;;;;5114571;28;20020;-63
2023/09/04 06:08:24;;;;;;;7.03;3.58;;;15.30;99.90;;;;;;5096706;28;20019;-62
2023/09/04 06:10:50;;;;;;;3.47;3.08;;;15.40;99.90;;;;;;5115232;28;20423;-63
2023/09/04 06:13:16;;;;;;;4.75;3.00;;;15.50;99.90;;;;;;5096798;28;20399;-63
2023/09/04 06:15:42;;;;;;;4.15;3.38;;;15.60;99.90;;;;;;5115097;28;20041;-63
2023/09/04 06:18:07;;;;;;;5.35;4.10;;;15.70;99.90;;;;;;5115188;28;20035;-63
2023/09/04 06:20:33;;;;;;;7.07;3.22;;;15.90;99.90;;;;;;5096542;28;20062;-63
2023/09/04 06:22:59;;;;;;;5.43;2.65;;;15.90;99.90;;;;;;5114775;28;20150;-63
2023/09/04 06:25:24;;;;;;;6.35;2.80;;;15.90;99.90;;;;;;5114795;28;20463;-63
2023/09/04 06:27:50;;;;;;;3.60;2.90;;;16.00;99.90;;;;;;5115455;28;20028;-62
2023/09/04 06:30:16;;;;;;;4.25;2.80;;;16.20;99.90;;;;;;5115168;28;20027;-63
2023/09/04 06:32:41;;;;;;;6.20;2.97;;;16.20;99.90;;;;;;5115357;28;20046;-63
2023/09/04 06:35:07;;;;;;;3.40;2.90;;;16.30;99.90;;;;;;5114850;28;20020;-63
2023/09/04 06:37:33;;;;;;;5.25;2.75;;;16.40;99.90;;;;;;5096898;28;20028;-63
2023/09/04 06:39:58;;;;;;;3.70;2.63;;;16.40;99.90;;;;;;5115084;28;20092;-63
2023/09/04 06:42:24;;;;;;;3.35;2.75;;;16.50;99.90;;;;;;5114652;28;20098;-62
2023/09/04 06:44:50;;;;;;;4.60;2.90;;;16.70;99.90;;;;;;5096606;28;20071;-62
2023/09/04 06:47:15;;;;;;;6.65;2.63;;;16.70;99.90;;;;;;5114498;28;20449;-62
2023/09/04 06:49:41;;;;;;;3.10;2.45;;;16.50;99.90;;;;;;5114367;28;20024;-63
2023/09/04 06:52:07;;;;;;;3.17;2.53;;;16.50;99.90;;;;;;5114234;28;20043;-63
2023/09/04 06:54:32;;;;;;;2.83;2.42;;;16.50;99.90;;;;;;5096049;28;20472;-63
2023/09/04 06:56:58;;;;;;;2.72;2.50;;;16.50;99.90;;;;;;5114382;28;20036;-60
2023/09/04 06:59:24;;;;;;;7.53;3.00;;;16.60;99.90;;;;;;5096220;28;20101;-60
2023/09/04 07:01:50;;;;;;;3.60;2.35;;;16.80;99.90;;;;;;5114458;28;20398;-60
2023/09/04 07:04:16;;;;;;;2.63;2.42;;;17.00;99.90;;;;;;5114292;28;20099;-60
2023/09/04 07:06:42;;;;;;;3.20;2.30;;;17.20;99.90;;;;;;5095973;28;20055;-61
2023/09/04 07:09:07;;;;;;;2.88;2.35;;;17.40;99.90;;;;;;5096000;28;20045;-60
2023/09/04 07:11:33;;;;;;;5.80;2.30;;;17.50;99.90;;;;;;5095930;28;20019;-60
2023/09/04 07:13:59;;;;;;;5.95;2.55;;;17.70;99.90;;;;;;5114253;28;20026;-60
2023/09/04 07:16:25;;;;;;;4.07;2.28;;;17.90;99.90;;;;;;5095932;28;20022;-61
2023/09/04 07:18:51;;;;;;;3.97;2.97;;;18.10;99.90;;;;;;5096024;28;20453;-60
2023/09/04 07:21:17;;;;;;;4.93;2.13;;;18.20;99.90;;;;;;5113903;28;20053;-60
2023/09/04 07:23:42;;;;;;;3.58;2.17;;;18.30;99.90;;;;;;5095677;28;20045;-60
2023/09/04 07:26:08;;;;;;;3.22;2.35;;;18.40;99.90;;;;;;5095927;28;20126;-60
2023/09/04 07:28:33;;;;;;;4.10;2.10;;;18.50;99.90;;;;;;5096024;28;20024;-59
2023/09/04 07:31:29;;;;;;;4.05;2.20;;;18.80;99.90;;;;;;5114140;28;20039;-60
2023/09/04 07:33:54;;;;;;;2.05;1.80;;;19.40;99.90;;;;;;5074669;28;20028;-60
2023/09/04 07:36:21;;;;;;;3.80;1.90;;;19.80;99.90;;;;;;5114086;28;20467;-60
2023/09/04 07:38:47;;;;;;;9.23;2.22;;;20.30;99.90;;;;;;5095720;28;20472;-60
2023/09/04 07:41:13;;;;;;;4.32;1.85;;;20.90;99.90;;;;;;5079135;28;20449;-60
2023/09/04 07:43:39;;;;;;;2.78;1.33;;;21.20;99.90;;;;;;5113989;28;20034;-60
2023/09/04 07:46:04;;;;;;;1.60;1.50;;;21.60;99.90;;;;;;5096205;28;20020;-60
2023/09/04 07:48:31;;;;;;;3.28;1.27;;;22.30;99.90;;;;;;5114153;28;20026;-58
2023/09/04 07:50:57;;;;;;;2.75;1.60;;;22.90;97.60;;;;;;5095427;28;20040;-58
2023/09/04 07:53:23;;;;;;;2.60;1.80;;;23.30;95.40;;;;;;5095658;28;20016;-59
2023/09/04 07:55:49;;;;;;;3.78;1.40;;;23.10;94.90;;;;;;5113484;28;20102;-58
2023/09/04 07:58:15;;;;;;;1.73;1.60;;;23.00;94.50;;;;;;5113721;28;20070;-60
2023/09/04 08:00:48;;;;;;;3.33;1.50;;;22.90;94.00;;;;;;5095701;28;20048;-59
2023/09/04 08:03:14;;;;;;;2.65;1.50;;;23.10;92.60;;;;;;5095432;28;20027;-59
2023/09/04 08:05:40;;;;;;;1.40;1.20;;;23.30;92.70;;;;;;5095484;28;20021;-60
2023/09/04 08:08:10;;;;;;;1.90;1.30;;;23.60;92.30;;;;;;5113416;28;20055;-61
2023/09/04 08:10:42;;;;;;;2.38;1.20;;;24.20;91.30;;;;;;5095362;28;20514;-61
2023/09/04 08:13:10;;;;;;;2.88;1.42;;;25.10;86.50;;;;;;5113764;28;20073;-61
2023/09/04 08:15:36;;;;;;;2.00;1.47;;;25.60;81.10;;;;;;5095310;28;20024;-61
2023/09/04 08:18:01;;;;;;;2.13;1.10;;;25.80;80.20;;;;;;5113680;28;20281;-61
2023/09/04 08:20:27;;;;;;;1.48;1.30;;;25.40;77.70;;;;;;5095402;28;20027;-61
2023/09/04 08:22:53;;;;;;;1.30;1.20;;;25.50;78.20;;;;;;5095357;28;20081;-61
2023/09/04 08:25:18;;;;;;;1.17;1.00;;;25.50;76.80;;;;;;5095389;28;20055;-61
2023/09/04 08:27:44;;;;;;;2.42;0.98;;;25.70;76.60;;;;;;5096704;28;20061;-61
2023/09/04 08:30:10;;;;;;;1.80;1.10;;;26.30;75.40;;;;;;5117988;28;20023;-61
2023/09/04 08:32:36;;;;;;;1.80;1.17;;;26.60;72.80;;;;;;5117018;28;20015;-61
2023/09/04 08:35:02;;;;;;;1.52;1.20;;;27.00;70.40;;;;;;5116933;28;20035;-61
2023/09/04 08:37:27;;;;;;;2.08;1.30;;;26.60;69.50;;;;;;5117069;28;20027;-61
2023/09/04 08:39:53;;;;;;;2.50;1.20;;;26.80;69.30;;;;;;5098643;28;20020;-61
2023/09/04 08:42:19;;;;;;;2.22;0.90;;;27.00;68.70;;;;;;5116619;28;20024;-61
2023/09/04 08:44:46;;;;;;;1.60;1.40;;;27.40;66.60;;;;;;5098641;28;20049;-62
2023/09/04 08:47:15;;;;;;;2.47;1.27;;;27.60;66.80;;;;;;5116806;28;20028;-62
2023/09/04 08:49:42;;;;;;;1.33;1.23;;;27.30;63.90;;;;;;5116538;28;20026;-62
2023/09/04 08:52:08;;;;;;;3.13;0.93;;;26.40;64.80;;;;;;5116858;28;20047;-62
2023/09/04 08:54:34;;;;;;;3.20;1.02;;;26.30;66.60;;;;;;5117084;28;20441;-61
2023/09/04 08:57:00;;;;;;;1.42;0.95;;;26.80;65.30;;;;;;5098202;28;20035;-61
2023/09/04 08:59:26;;;;;;;2.63;1.20;;;27.10;65.30;;;;;;5098194;28;20016;-61
2023/09/04 09:01:54;;;;;;;1.38;1.10;;;26.40;64.50;;;;;;5116536;28;20022;-61
2023/09/04 09:04:21;;;;;;;2.13;1.02;;;26.60;65.60;;;;;;5098376;28;20030;-61
2023/09/04 09:06:51;;;;;;;1.83;1.00;;;27.10;63.00;;;;;;5116759;28;20028;-62
2023/09/04 09:09:20;;;;;;;2.05;1.23;;;27.60;62.70;;;;;;5116366;28;20019;-61
2023/09/04 09:11:46;;;;;;;3.70;1.20;;;27.10;61.40;;;;;;5117045;28;20058;-65
2023/09/04 09:14:15;;;;;;;2.10;0.98;;;27.00;61.20;;;;;;5099524;28;20461;-62
2023/09/04 09:16:41;;;;;;;2.65;1.00;;;27.70;62.40;;;;;;5098887;28;20028;-64
2023/09/04 09:19:10;;;;;;;1.98;1.05;;;28.30;60.30;;;;;;5117280;28;20357;-62
2023/09/04 09:21:35;;;;;;;3.03;1.30;;;27.80;59.80;;;;;;5116927;28;20020;-61
2023/09/04 09:24:13;;;;;;;2.53;1.30;;;27.80;59.50;;;;;;5098288;28;20067;-61
2023/09/04 09:26:41;;;;;;;4.90;1.20;;;27.50;59.20;;;;;;5116356;28;20031;-61
2023/09/04 09:29:10;;;;;;;1.40;0.90;;;27.30;60.20;;;;;;5098067;28;20030;-61
2023/09/04 09:31:37;;;;;;;1.88;0.82;;;27.90;60.00;;;;;;5116237;28;20023;-65
2023/09/04 09:34:04;;;;;;;1.10;0.80;;;28.40;60.00;;;;;;5116701;28;20099;-65
2023/09/04 09:36:29;;;;;;;2.53;1.20;;;28.00;58.10;;;;;;5098471;28;20019;-65
2023/09/04 09:38:55;;;;;;;1.88;1.13;;;27.50;59.30;;;;;;5097790;28;20022;-65
2023/09/04 09:41:21;;;;;;;3.67;1.23;;;27.00;60.60;;;;;;5117212;28;20099;-65
2023/09/04 09:43:46;;;;;;;3.22;1.20;;;26.20;61.30;;;;;;5116727;28;20024;-65
2023/09/04 09:46:16;;;;;;;2.85;1.48;;;25.80;62.30;;;;;;5116122;28;20072;-64
2023/09/04 09:48:43;;;;;;;2.38;1.52;;;25.70;62.60;;;;;;5097851;28;20076;-65
2023/09/04 09:51:10;;;;;;;2.13;0.80;;;26.80;60.80;;;;;;5116192;28;20048;-65
2023/09/04 09:53:50;;;;;;;1.70;1.30;;;28.00;58.40;;;;;;5116071;28;20019;-65
2023/09/04 09:56:17;;;;;;;3.33;1.20;;;28.00;58.30;;;;;;5117447;28;20322;-65
2023/09/04 09:58:45;;;;;;;1.52;0.93;;;28.00;57.40;;;;;;5116346;28;20471;-65
2023/09/04 10:01:16;;;;;;;2.65;1.23;;;28.00;57.90;;;;;;5097440;28;20034;-65
2023/09/04 10:03:43;;;;;;;1.35;1.25;;;27.00;59.00;;;;;;5097448;28;20043;-65
2023/09/04 10:06:14;;;;;;;1.75;0.90;;;27.10;59.90;;;;;;5115407;28;20020;-65
2023/09/04 10:08:43;;;;;;;0.85;0.73;;;26.50;60.90;;;;;;5097063;28;20028;-64
2023/09/04 10:11:16;;;;;;;;;;;25.90;62.40;;;;;;5097295;28;20028;-64
2023/09/04 10:14:12;;;;;;;1.48;0.95;;;25.40;62.80;;;;;;5115546;28;19899;-65
2023/09/04 10:16:53;;;;;;;2.90;1.00;;;26.30;60.30;;;;;;5097494;28;20139;-65
2023/09/04 10:19:24;;;;;;;2.60;1.10;;;27.70;58.30;;;;;;5097056;28;20020;-65
2023/09/04 10:21:56;;;;;;;2.30;0.90;;;27.60;57.30;;;;;;5097033;28;20023;-64
2023/09/04 10:24:35;;;;;;;1.65;0.80;;;27.10;58.30;;;;;;5096982;28;20419;-64
2023/09/04 10:27:08;;;;;;;1.80;1.05;;;26.30;58.10;;;;;;5097369;28;20026;-64
2023/09/04 10:29:46;;;;;;;3.13;0.73;;;25.70;59.20;;;;;;5115424;28;20047;-64
2023/09/04 10:32:13;;;;;;;2.25;1.00;;;25.50;60.20;;;;;;5097007;28;20058;-63
2023/09/04 10:34:40;;;;;;;3.55;1.30;;;24.80;60.70;;;;;;5114869;28;20470;-63
2023/09/04 10:37:09;;;;;;;3.33;1.10;;;24.60;60.50;;;;;;5096664;28;20031;-64
2023/09/04 10:39:36;;;;;;;5.93;1.63;;;24.70;61.20;;;;;;5096453;28;20026;-63
2023/09/04 10:42:02;;;;;;;5.28;1.13;;;25.30;59.40;;;;;;5096566;28;20042;-63
2023/09/04 10:44:51;;;;;;;1.50;0.93;;;24.90;60.00;;;;;;5115108;28;20026;-63
2023/09/04 10:47:18;;;;;;;1.23;0.85;;;25.40;60.30;;;;;;5097488;28;20019;-64
2023/09/04 10:49:44;;;;;;;3.92;1.00;;;25.70;59.00;;;;;;5096282;28;20030;-64
2023/09/04 10:52:11;;;;;;;1.48;1.13;;;25.50;59.00;;;;;;5115346;28;20114;-64
2023/09/04 10:54:38;;;;;;;3.28;1.08;;;25.40;60.80;;;;;;5114836;28;20453;-64
2023/09/04 10:57:11;;;;;;;1.88;0.80;;;25.60;59.90;;;;;;5114785;28;20030;-64
2023/09/04 11:00:01;;;;;;;1.58;1.00;;;25.30;60.40;;;;;;5116025;28;20055;-64
2023/09/04 11:02:31;;;;;;;2.15;1.00;;;25.10;60.30;;;;;;5101667;28;20036;-65
2023/09/04 11:04:59;;;;;;;1.80;1.10;;;25.20;60.40;;;;;;5097267;28;20061;-64
2023/09/04 11:07:27;;;;;;;5.07;1.20;;;26.20;59.90;;;;;;5115324;28;20060;-65
2023/09/04 11:10:01;;;;;;;2.95;1.30;;;26.50;57.80;;;;;;5100930;28;20023;-65
2023/09/04 11:12:27;;;;;;;2.35;0.70;;;26.60;57.70;;;;;;5124922;28;20034;-64
2023/09/04 11:14:54;;;;;;;2.03;0.98;;;27.80;56.60;;;;;;5108250;28;20019;-65
2023/09/04 11:17:40;;;;;;;2.33;1.00;;;28.70;54.80;;;;;;5125490;28;20046;-64
2023/09/04 11:20:06;;;;;;;5.13;0.90;;;28.50;52.70;;;;;;5126884;28;20028;-63
2023/09/04 11:22:33;;;;;;;4.70;1.08;;;28.80;52.90;;;;;;5124195;28;20027;-64
2023/09/04 11:24:59;;;;;;;3.05;1.00;;;29.70;51.20;;;;;;5107091;28;20028;-64
2023/09/04 11:27:26;;;;;;;1.65;1.00;;;30.60;50.30;;;;;;5123524;28;20079;-64
2023/09/04 11:29:52;;;;;;;1.65;0.90;;;31.10;50.00;;;;;;5103430;28;20034;-65
2023/09/04 11:32:19;;;;;;;2.28;1.00;;;30.70;48.80;;;;;;5102335;28;20031;-64
2023/09/04 11:34:45;;;;;;;3.97;0.90;;;30.10;50.10;;;;;;5119922;28;20033;-65
2023/09/04 11:37:14;;;;;;;1.73;0.70;;;29.80;50.50;;;;;;5116040;28;20020;-67
2023/09/04 11:39:57;;;;;;;2.25;1.05;;;29.60;50.40;;;;;;5114976;28;20356;-65
2023/09/04 11:42:24;;;;;;;1.33;1.00;;;29.10;51.80;;;;;;5114328;28;20034;-64
2023/09/04 11:44:50;;;;;;;1.63;0.90;;;28.30;52.60;;;;;;5114549;28;20121;-64
2023/09/04 11:47:19;;;;;;;1.55;1.20;;;27.40;53.60;;;;;;5079294;28;20122;-63
2023/09/04 11:49:46;;;;;;;2.53;0.90;;;27.50;52.80;;;;;;5096050;28;20368;-64
2023/09/04 11:52:13;;;;;;;2.72;1.10;;;28.00;53.30;;;;;;5113849;28;20035;-63
2023/09/04 11:54:42;;;;;;;10.30;1.88;;;28.50;51.70;;;;;;5114263;28;20016;-64
2023/09/04 11:57:09;;;;;;;62.67;8.20;;;29.30;50.80;;;;;;5114231;28;20034;-64
2023/09/04 11:59:39;;;;;;;1.05;0.98;;;29.80;51.10;;;;;;5114144;28;20055;-64
2023/09/04 12:02:06;;;;;;;2.40;1.00;;;30.00;50.00;;;;;;5114787;28;20019;-66
2023/09/04 12:04:32;;;;;;;2.28;1.10;;;30.00;49.20;;;;;;5117869;28;20015;-66
2023/09/04 12:07:02;;;;;;;1.90;1.08;;;30.10;49.10;;;;;;5117609;28;20023;-66
2023/09/04 12:09:29;;;;;;;2.50;1.17;;;30.00;49.10;;;;;;5117815;28;20031;-65
2023/09/04 12:11:55;;;;;;;2.70;1.10;;;29.10;49.30;;;;;;5118121;28;20031;-66
2023/09/04 12:14:21;;;;;;;3.08;0.90;;;28.20;50.70;;;;;;5099549;28;20579;-65
2023/09/04 12:16:47;;;;;;;2.53;0.90;;;27.90;52.10;;;;;;5117857;28;20102;-66
2023/09/04 12:19:15;;;;;;;1.35;0.80;;;28.60;51.60;;;;;;5099233;28;20457;-67
2023/09/04 12:21:41;;;;;;;2.33;0.90;;;29.20;50.00;;;;;;5117692;28;20043;-66
2023/09/04 12:24:14;;;;;;;4.50;1.10;;;29.70;50.70;;;;;;5099361;28;20019;-66
2023/09/04 12:26:40;;;;;;;2.05;1.20;;;30.10;48.80;;;;;;5099880;28;20042;-56
2023/09/04 12:29:12;;;;;;;2.55;0.93;;;30.00;46.80;;;;;;5117376;28;20019;-57
2023/09/04 12:31:38;;;;;;;2.08;1.23;;;30.00;45.70;;;;;;5118023;28;20038;-58
2023/09/04 12:34:04;;;;;;;5.45;1.30;;;29.40;47.50;;;;;;5117348;28;20091;-57
2023/09/04 12:36:32;;;;;;;1.85;1.05;;;29.10;48.40;;;;;;5099332;28;20023;-57
2023/09/04 12:38:58;;;;;;;2.73;1.20;;;29.30;47.60;;;;;;5117289;28;20036;-57
2023/09/04 12:41:24;;;;;;;5.25;1.05;;;29.80;48.40;;;;;;5117186;28;20019;-57